Terminal Aerodrome Forecast
Issued by NWS

Home | Current Version | Previous Version | Text Only | Print | Product List | Glossary On
Versions: 1 2 3 4 5 6 7 8 9 10 11 12 13 14 15 16
000
FTUS41 KGYX 181131
TAFAUG
TAF
KAUG 181131Z 1812/1912 00000KT 1/4SM FG VV001
     FM181330 30005KT P6SM FEW060 SCT100
     FM181600 33009KT P6SM SCT060 BKN100
     FM190000 35009KT P6SM SKC=

USA.gov is the U.S. government's official web portal to all federal, state and local government web resources and services.